createdAt,value
2022-12-03T00:01:00.006Z,32.95
2022-12-03T00:03:30.968Z,32.45
2022-12-03T00:06:04.413Z,27.15
2022-12-03T00:08:37.125Z,29.10
2022-12-03T00:11:07.997Z,31.65
2022-12-03T00:13:38.603Z,29.98
2022-12-03T00:16:09.768Z,27.20
2022-12-03T00:18:40.452Z,29.10
2022-12-03T00:21:13.670Z,27.73
2022-12-03T00:23:44.400Z,25.63
2022-12-03T00:26:15.345Z,24.13
2022-12-03T00:28:46.061Z,23.20
2022-12-03T00:31:17.340Z,22.60
2022-12-03T00:33:47.997Z,24.48
2022-12-03T00:36:21.902Z,24.23
2022-12-03T00:38:52.465Z,24.67
2022-12-03T00:41:23.027Z,22.73
2022-12-03T00:43:57.631Z,25.35
2022-12-03T00:46:28.621Z,25.02
2022-12-03T00:48:59.657Z,24.13
2022-12-03T00:51:33.207Z,24.45
2022-12-03T00:54:03.904Z,22.40
2022-12-03T00:56:34.627Z,23.67
2022-12-03T00:59:05.350Z,23.15
2022-12-03T01:01:36.101Z,22.88
2022-12-03T01:04:07.075Z,23.50
2022-12-03T01:06:40.290Z,25.55
2022-12-03T01:09:10.994Z,24.23
2022-12-03T01:11:42.097Z,25.60
2022-12-03T01:14:14.577Z,25.05
2022-12-03T01:16:46.244Z,24.15
2022-12-03T01:19:18.131Z,23.45
2022-12-03T01:21:53.492Z,21.45
2022-12-03T01:24:24.330Z,23.88
2022-12-03T01:26:56.375Z,19.65
2022-12-03T01:29:27.084Z,20.15
2022-12-03T01:32:10.127Z,20.77
2022-12-03T01:34:40.978Z,22.55
2022-12-03T01:37:14.727Z,23.73
2022-12-03T01:39:46.500Z,21.90
2022-12-03T01:42:20.839Z,24.60
2022-12-03T01:44:54.080Z,22.25
2022-12-03T01:47:29.811Z,20.40
2022-12-03T01:50:03.908Z,21.27
2022-12-03T01:52:41.874Z,21.27
2022-12-03T01:55:19.465Z,16.50
2022-12-03T01:57:53.525Z,21.30
2022-12-03T02:00:27.303Z,18.20
2022-12-03T02:03:00.271Z,21.15
2022-12-03T02:05:33.117Z,24.85
2022-12-03T02:08:32.730Z,21.52
2022-12-03T02:11:06.681Z,24.00
2022-12-03T02:14:02.339Z,22.48
2022-12-03T02:19:03.758Z,17.30
2022-12-03T02:21:41.911Z,15.25
2022-12-03T02:24:22.846Z,22.05
2022-12-03T02:26:56.421Z,19.55
2022-12-03T02:29:29.772Z,13.20
2022-12-03T02:32:00.506Z,11.65
2022-12-03T02:34:39.369Z,11.25
2022-12-03T02:37:14.703Z,12.90
2022-12-03T02:39:49.577Z,13.02
2022-12-03T02:42:38.535Z,13.88
2022-12-03T02:45:14.438Z,13.52
2022-12-03T02:47:47.628Z,12.25
2022-12-03T02:50:22.222Z,11.38
2022-12-03T02:52:54.190Z,13.93
2022-12-03T02:55:26.307Z,12.07
2022-12-03T02:58:00.289Z,13.80
2022-12-03T03:00:31.249Z,11.77
2022-12-03T03:03:03.820Z,14.18
2022-12-03T03:05:35.302Z,14.30
2022-12-03T03:08:06.717Z,10.77
2022-12-03T03:10:39.354Z,14.20
2022-12-03T03:13:14.647Z,12.23
2022-12-03T03:15:46.268Z,13.07
2022-12-03T03:18:18.766Z,11.88
2022-12-03T03:20:49.535Z,9.85
2022-12-03T03:23:23.036Z,10.45
2022-12-03T03:25:59.593Z,9.98
2022-12-03T03:28:34.232Z,10.40
2022-12-03T03:31:07.437Z,9.77
2022-12-03T03:33:38.602Z,10.52
2022-12-03T03:36:10.756Z,12.60
2022-12-03T03:38:42.791Z,10.48
2022-12-03T03:41:15.531Z,11.93
2022-12-03T03:43:50.595Z,13.52
2022-12-03T03:46:22.632Z,11.98
2022-12-03T03:48:54.767Z,8.60
2022-12-03T03:51:25.691Z,9.07
2022-12-03T03:53:56.648Z,8.60
2022-12-03T03:56:28.351Z,8.18
2022-12-03T03:59:02.009Z,8.35
2022-12-03T04:01:33.260Z,7.50
2022-12-03T04:04:04.103Z,9.45
2022-12-03T04:06:37.097Z,9.95
2022-12-03T04:09:07.781Z,11.35
2022-12-03T04:11:52.532Z,10.82
2022-12-03T04:14:26.074Z,9.85
2022-12-03T04:16:57.007Z,9.90
2022-12-03T04:19:27.748Z,9.48
2022-12-03T04:22:10.682Z,10.70
2022-12-03T04:24:41.462Z,8.35
2022-12-03T04:27:24.506Z,10.48
2022-12-03T04:29:57.811Z,7.72
2022-12-03T04:32:41.041Z,8.50
2022-12-03T04:35:25.571Z,11.40
2022-12-03T04:37:56.748Z,7.75
2022-12-03T04:40:39.831Z,9.45
2022-12-03T04:43:10.776Z,9.15
2022-12-03T04:45:44.675Z,7.93
2022-12-03T04:48:15.558Z,9.45
2022-12-03T04:50:46.492Z,9.15
2022-12-03T04:53:17.278Z,10.70
2022-12-03T04:55:48.222Z,9.90
2022-12-03T04:58:19.166Z,8.93
2022-12-03T05:00:52.673Z,7.63
2022-12-03T05:03:23.596Z,6.85
2022-12-03T05:05:54.207Z,6.57
2022-12-03T05:08:24.794Z,6.53
2022-12-03T05:10:55.959Z,8.68
2022-12-03T05:13:26.796Z,7.95
2022-12-03T05:16:01.033Z,7.50
2022-12-03T05:18:32.366Z,8.57
2022-12-03T05:21:03.175Z,8.35
2022-12-03T05:23:34.296Z,6.97
2022-12-03T05:26:05.261Z,6.95
2022-12-03T05:28:37.800Z,9.90
2022-12-03T05:31:12.083Z,10.98
2022-12-03T05:33:44.594Z,10.63
2022-12-03T05:36:16.056Z,12.90
2022-12-03T05:38:47.081Z,12.07
2022-12-03T05:41:30.120Z,15.93
2022-12-03T05:44:00.638Z,15.00
2022-12-03T05:46:34.565Z,14.27
2022-12-03T05:49:05.384Z,15.13
2022-12-03T05:51:36.149Z,23.00
2022-12-03T05:54:06.862Z,27.38
2022-12-03T05:56:37.719Z,23.83
2022-12-03T05:59:08.636Z,23.08
2022-12-03T06:01:41.993Z,15.48
2022-12-03T06:04:12.864Z,18.00
2022-12-03T06:06:43.636Z,13.75
2022-12-03T06:09:14.550Z,13.45
2022-12-03T06:11:45.069Z,6.32
2022-12-03T06:14:15.847Z,9.15
2022-12-03T06:16:49.270Z,8.93
2022-12-03T06:19:20.353Z,16.60
2022-12-03T06:21:51.206Z,14.48
2022-12-03T06:24:21.961Z,13.10
2022-12-03T06:26:52.720Z,11.30
2022-12-03T06:29:23.635Z,11.30
2022-12-03T06:31:56.882Z,11.88
2022-12-03T06:34:27.546Z,10.10
2022-12-03T06:36:58.361Z,16.77
2022-12-03T06:39:29.107Z,10.07
2022-12-03T06:41:59.655Z,14.35
2022-12-03T06:44:30.341Z,13.52
2022-12-03T06:47:03.905Z,9.07
2022-12-03T06:49:34.943Z,9.65
2022-12-03T06:52:05.971Z,12.68
2022-12-03T06:54:37.874Z,14.02
2022-12-03T06:57:08.675Z,11.50
2022-12-03T06:59:39.522Z,10.75
2022-12-03T07:02:13.103Z,18.48
2022-12-03T07:04:52.533Z,11.93
2022-12-03T07:07:23.080Z,9.43
2022-12-03T07:09:53.825Z,9.40
2022-12-03T07:12:24.455Z,7.10
2022-12-03T07:14:55.627Z,7.45
2022-12-03T07:17:30.590Z,9.73
2022-12-03T07:20:01.384Z,10.55
2022-12-03T07:22:33.679Z,11.02
2022-12-03T07:25:04.597Z,14.77
2022-12-03T07:27:35.592Z,10.48
2022-12-03T07:30:07.418Z,9.63
2022-12-03T07:32:41.076Z,14.15
2022-12-03T07:35:12.957Z,11.05
2022-12-03T07:37:43.619Z,11.05
2022-12-03T07:40:15.812Z,10.65
2022-12-03T07:42:46.543Z,8.38
2022-12-03T07:45:17.217Z,9.40
2022-12-03T07:47:50.985Z,9.23
2022-12-03T07:50:21.948Z,8.93
2022-12-03T07:52:52.990Z,8.30
2022-12-03T07:55:25.431Z,7.60
2022-12-03T07:57:56.165Z,10.68
2022-12-03T08:00:27.313Z,10.38
2022-12-03T08:03:00.685Z,12.27
2022-12-03T08:05:31.622Z,9.93
2022-12-03T08:08:02.250Z,12.40
2022-12-03T08:10:33.615Z,10.32
2022-12-03T08:13:06.156Z,11.88
2022-12-03T08:15:39.488Z,15.60
2022-12-03T08:18:19.031Z,14.38
2022-12-03T08:20:51.472Z,14.63
2022-12-03T08:23:24.556Z,12.63
2022-12-03T08:26:02.237Z,19.30
2022-12-03T08:28:32.823Z,18.10
2022-12-03T08:31:05.785Z,19.08
2022-12-03T08:33:40.331Z,18.60
2022-12-03T08:36:17.580Z,16.98
2022-12-03T08:38:52.379Z,17.42
2022-12-03T08:41:35.996Z,16.83
2022-12-03T08:44:19.876Z,17.85
2022-12-03T08:46:53.385Z,24.13
2022-12-03T08:49:26.571Z,15.75
2022-12-03T08:52:00.520Z,23.58
2022-12-03T08:54:31.492Z,15.32
2022-12-03T08:57:05.129Z,19.85
2022-12-03T08:59:35.818Z,16.60
2022-12-03T09:02:20.085Z,15.77
2022-12-03T09:04:56.137Z,14.80
2022-12-03T09:07:27.413Z,16.92
2022-12-03T09:09:58.021Z,18.35
2022-12-03T09:12:28.632Z,20.58
2022-12-03T09:14:59.250Z,19.98
2022-12-03T09:17:29.912Z,11.77
2022-12-03T09:20:03.500Z,20.67
2022-12-03T09:22:34.764Z,12.88
2022-12-03T09:25:05.367Z,9.70
2022-12-03T09:27:36.114Z,11.52
2022-12-03T09:30:07.565Z,9.65
2022-12-03T09:32:38.290Z,7.45
2022-12-03T09:35:12.066Z,8.18
2022-12-03T09:37:42.682Z,8.77
2022-12-03T09:40:15.004Z,15.80
2022-12-03T09:42:45.749Z,10.02
2022-12-03T09:45:17.908Z,9.00
2022-12-03T09:47:51.036Z,12.20
2022-12-03T09:50:27.359Z,11.20
2022-12-03T09:53:01.778Z,7.20
2022-12-03T09:55:33.252Z,8.75
2022-12-03T09:58:04.234Z,7.10
2022-12-03T10:00:35.041Z,9.38
2022-12-03T10:03:09.363Z,6.45
2022-12-03T10:05:47.964Z,7.40
2022-12-03T10:08:22.941Z,11.13
2022-12-03T10:10:56.910Z,10.63
2022-12-03T10:13:31.163Z,13.68
2022-12-03T10:16:04.038Z,10.90
2022-12-03T10:18:41.461Z,19.17
2022-12-03T10:21:23.213Z,11.07
2022-12-03T10:24:20.984Z,22.80
2022-12-03T10:26:52.966Z,8.30
2022-12-03T10:29:29.905Z,19.52
2022-12-03T10:32:05.668Z,19.10
2022-12-03T10:34:39.170Z,28.30
2022-12-03T10:37:18.300Z,28.88
2022-12-03T10:40:00.380Z,28.17
2022-12-03T10:42:33.210Z,22.40
2022-12-03T10:45:19.941Z,19.13
2022-12-03T10:48:07.617Z,25.88
2022-12-03T10:50:39.333Z,18.08
2022-12-03T10:53:13.512Z,15.65
2022-12-03T10:55:46.342Z,20.63
2022-12-03T10:58:24.023Z,21.20
2022-12-03T11:00:58.666Z,22.80
2022-12-03T11:03:31.671Z,20.00
2022-12-03T11:06:04.533Z,16.63
2022-12-03T11:09:00.341Z,22.55
2022-12-03T11:11:34.449Z,26.02
2022-12-03T11:14:06.725Z,18.88
2022-12-03T11:17:10.126Z,19.60
2022-12-03T11:19:52.387Z,18.90
2022-12-03T11:22:44.232Z,12.00
2022-12-03T11:25:50.799Z,16.20
2022-12-03T11:28:56.896Z,14.35
2022-12-03T11:31:42.257Z,20.00
2022-12-03T11:34:51.693Z,22.40
2022-12-03T11:37:30.085Z,17.10
2022-12-03T11:40:05.709Z,24.45
2022-12-03T11:42:43.182Z,16.95
2022-12-03T11:45:31.504Z,20.35
2022-12-03T11:48:20.048Z,29.27
2022-12-03T11:50:54.975Z,18.55
2022-12-03T11:53:27.900Z,20.05
2022-12-03T11:56:09.442Z,22.33
2022-12-03T11:58:42.904Z,17.08
2022-12-03T12:01:17.901Z,20.40
2022-12-03T12:03:50.083Z,33.75
2022-12-03T12:06:22.606Z,30.55
2022-12-03T12:09:04.186Z,27.45
2022-12-03T12:11:47.777Z,23.25
2022-12-03T12:14:29.174Z,30.00
2022-12-03T12:17:04.094Z,24.65
2022-12-03T12:19:37.740Z,26.35
2022-12-03T12:22:21.080Z,25.33
2022-12-03T12:24:54.378Z,22.83
2022-12-03T12:27:32.652Z,26.80
2022-12-03T12:30:05.342Z,31.92
2022-12-03T12:32:47.446Z,32.10
2022-12-03T12:35:21.364Z,33.33
2022-12-03T12:37:59.484Z,24.73
2022-12-03T12:40:33.726Z,32.58
2022-12-03T12:43:14.240Z,25.08
2022-12-03T12:45:47.318Z,25.05
2022-12-03T12:48:26.266Z,31.23
2022-12-03T12:51:09.733Z,29.75
2022-12-03T12:53:43.035Z,33.13
2022-12-03T12:56:26.114Z,33.92
2022-12-03T12:58:57.390Z,31.98
2022-12-03T13:01:30.556Z,28.15
2022-12-03T13:04:03.851Z,23.50
2022-12-03T13:06:35.218Z,22.67
2022-12-03T13:09:06.153Z,27.05
2022-12-03T13:11:42.560Z,25.38
2022-12-03T13:14:20.150Z,32.47
2022-12-03T13:16:52.182Z,29.95
2022-12-03T13:19:30.298Z,33.75
2022-12-03T13:22:03.926Z,27.42
2022-12-03T13:24:37.160Z,25.65
2022-12-03T13:27:25.934Z,27.92
2022-12-03T13:29:59.135Z,23.55
2022-12-03T13:32:33.960Z,26.30
2022-12-03T13:35:09.728Z,36.78
2022-12-03T13:37:40.655Z,30.60
2022-12-03T13:40:23.346Z,23.50
2022-12-03T13:42:52.989Z,25.35
2022-12-03T13:45:34.182Z,27.63
2022-12-03T13:48:07.343Z,22.00
2022-12-03T13:50:44.746Z,26.48
2022-12-03T13:53:23.560Z,24.35
2022-12-03T13:55:57.556Z,25.35
2022-12-03T13:58:28.790Z,25.63
2022-12-03T14:00:59.472Z,24.15
2022-12-03T14:03:30.146Z,24.88
2022-12-03T14:06:03.430Z,32.28
2022-12-03T14:08:34.214Z,28.67
2022-12-03T14:11:05.816Z,23.98
2022-12-03T14:13:36.984Z,24.52
2022-12-03T14:16:08.463Z,25.63
2022-12-03T14:18:39.491Z,25.92
2022-12-03T14:21:12.703Z,25.80
2022-12-03T14:23:43.290Z,26.40
2022-12-03T14:26:14.119Z,26.95
2022-12-03T14:28:44.741Z,23.45
2022-12-03T14:31:15.999Z,26.73
2022-12-03T14:33:46.961Z,27.45
2022-12-03T14:36:20.397Z,27.33
2022-12-03T14:38:50.965Z,31.98
2022-12-03T14:41:33.885Z,28.27
2022-12-03T14:44:04.722Z,27.45
2022-12-03T14:46:36.907Z,30.13
2022-12-03T14:49:07.935Z,28.30
2022-12-03T14:51:41.335Z,28.08
2022-12-03T14:54:12.254Z,28.05
2022-12-03T14:56:43.120Z,30.63
2022-12-03T14:59:14.050Z,29.33
2022-12-03T15:01:44.891Z,30.65
2022-12-03T15:04:15.949Z,30.33
2022-12-03T15:06:49.411Z,29.85
2022-12-03T15:09:20.635Z,36.65
2022-12-03T15:11:51.656Z,35.53
2022-12-03T15:14:22.241Z,32.63
2022-12-03T15:16:52.990Z,31.48
2022-12-03T15:19:23.658Z,36.90
2022-12-03T15:21:56.884Z,29.05
2022-12-03T15:24:27.565Z,38.33
2022-12-03T15:26:58.146Z,37.75
2022-12-03T15:29:29.024Z,34.70
2022-12-03T15:32:01.325Z,38.63
2022-12-03T15:34:32.028Z,35.45
2022-12-03T15:37:05.412Z,39.50
2022-12-03T15:39:36.591Z,39.90
2022-12-03T15:42:07.453Z,37.42
2022-12-03T15:44:38.070Z,37.78
2022-12-03T15:47:08.841Z,39.03
2022-12-03T15:49:39.598Z,32.20
2022-12-03T15:52:12.981Z,34.33
2022-12-03T15:54:43.810Z,36.92
2022-12-03T15:57:14.818Z,34.20
2022-12-03T15:59:46.240Z,31.77
2022-12-03T16:02:19.017Z,31.17
2022-12-03T16:04:49.820Z,30.90
2022-12-03T16:07:23.314Z,29.27
2022-12-03T16:09:54.065Z,36.25
2022-12-03T16:12:25.055Z,37.72
2022-12-03T16:14:55.681Z,36.75
2022-12-03T16:17:26.487Z,31.23
2022-12-03T16:19:57.407Z,28.58
2022-12-03T16:22:30.924Z,31.50
2022-12-03T16:25:01.572Z,31.90
2022-12-03T16:27:34.010Z,28.13
2022-12-03T16:30:05.144Z,27.60
2022-12-03T16:32:36.099Z,29.83
2022-12-03T16:35:07.786Z,29.75
2022-12-03T16:37:41.393Z,30.50
2022-12-03T16:40:13.264Z,29.27
2022-12-03T16:42:44.087Z,29.60
2022-12-03T16:45:26.897Z,32.03
2022-12-03T16:47:58.249Z,32.05
2022-12-03T16:50:30.123Z,29.38
2022-12-03T16:53:03.873Z,28.70
2022-12-03T16:55:34.852Z,29.88
2022-12-03T16:58:05.542Z,32.88
2022-12-03T17:00:36.539Z,34.20
2022-12-03T17:03:07.400Z,37.08
2022-12-03T17:05:38.887Z,36.47
2022-12-03T17:08:12.343Z,36.65
2022-12-03T17:10:43.188Z,35.47
2022-12-03T17:13:14.148Z,32.85
2022-12-03T17:15:45.089Z,34.17
2022-12-03T17:18:15.852Z,32.90
2022-12-03T17:20:46.489Z,30.58
2022-12-03T17:23:20.029Z,38.10
2022-12-03T17:25:50.534Z,32.10
2022-12-03T17:28:21.171Z,35.10
2022-12-03T17:30:51.950Z,33.78
2022-12-03T17:33:23.020Z,33.03
2022-12-03T17:35:53.678Z,33.28
2022-12-03T17:38:26.955Z,29.38
2022-12-03T17:40:57.632Z,36.25
2022-12-03T17:43:28.492Z,29.90
2022-12-03T17:46:00.326Z,30.17
2022-12-03T17:48:31.534Z,35.55
2022-12-03T17:51:17.993Z,35.28
2022-12-03T17:53:51.342Z,30.50
2022-12-03T17:56:21.954Z,27.98
2022-12-03T17:58:52.596Z,26.17
2022-12-03T18:01:23.260Z,27.83
2022-12-03T18:03:53.962Z,23.55
2022-12-03T18:06:26.594Z,25.58
2022-12-03T18:08:59.802Z,26.15
2022-12-03T18:11:30.546Z,27.50
2022-12-03T18:14:01.763Z,23.70
2022-12-03T18:16:32.979Z,24.20
2022-12-03T18:19:06.432Z,24.63
2022-12-03T18:21:38.145Z,22.83
2022-12-03T18:24:12.298Z,25.67
2022-12-03T18:26:43.581Z,23.95
2022-12-03T18:29:14.259Z,28.13
2022-12-03T18:31:45.008Z,24.42
2022-12-03T18:34:15.986Z,24.67
2022-12-03T18:36:46.799Z,22.05
2022-12-03T18:39:27.210Z,20.17
2022-12-03T18:41:57.990Z,21.88
2022-12-03T18:44:29.237Z,19.45
2022-12-03T18:47:00.341Z,25.55
2022-12-03T18:49:31.104Z,23.73
2022-12-03T18:52:01.839Z,20.20
2022-12-03T18:54:35.183Z,20.98
2022-12-03T18:57:05.840Z,21.60
2022-12-03T18:59:36.392Z,21.90
2022-12-03T19:02:07.999Z,18.77
2022-12-03T19:04:38.931Z,20.30
2022-12-03T19:07:09.854Z,18.63
2022-12-03T19:09:43.185Z,17.58
2022-12-03T19:12:14.817Z,18.15
2022-12-03T19:14:45.621Z,16.50
2022-12-03T19:17:16.278Z,18.45
2022-12-03T19:19:46.992Z,19.98
2022-12-03T19:22:17.807Z,19.73
2022-12-03T19:24:51.151Z,23.77
2022-12-03T19:27:22.417Z,26.40
2022-12-03T19:29:53.265Z,20.90
2022-12-03T19:32:24.229Z,18.17
2022-12-03T19:34:55.012Z,19.45
2022-12-03T19:37:25.707Z,20.95
2022-12-03T19:39:59.043Z,23.92
2022-12-03T19:42:31.435Z,21.30
2022-12-03T19:45:02.114Z,18.70
2022-12-03T19:47:33.719Z,21.48
2022-12-03T19:50:04.404Z,20.08
2022-12-03T19:52:38.271Z,22.40
2022-12-03T19:55:13.527Z,20.92
2022-12-03T19:57:44.229Z,22.02
2022-12-03T20:00:16.421Z,21.45
2022-12-03T20:02:47.316Z,19.45
2022-12-03T20:05:18.066Z,20.33
2022-12-03T20:07:48.811Z,20.83
2022-12-03T20:10:22.190Z,22.50
2022-12-03T20:12:52.829Z,20.88
2022-12-03T20:15:23.543Z,25.40
2022-12-03T20:17:55.524Z,24.42
2022-12-03T20:20:26.473Z,22.40
2022-12-03T20:22:57.161Z,18.70
2022-12-03T20:25:30.587Z,17.80
2022-12-03T20:28:01.300Z,20.85
2022-12-03T20:30:31.977Z,19.88
2022-12-03T20:33:02.557Z,18.30
2022-12-03T20:35:33.680Z,20.92
2022-12-03T20:38:04.583Z,16.83
2022-12-03T20:40:39.569Z,20.08
2022-12-03T20:43:10.431Z,19.77
2022-12-03T20:45:41.248Z,24.63
2022-12-03T20:48:12.522Z,25.80
2022-12-03T20:50:43.588Z,28.65
2022-12-03T20:53:24.709Z,28.35
2022-12-03T20:56:01.798Z,21.60
2022-12-03T20:58:33.300Z,22.92
2022-12-03T21:01:15.570Z,21.30
2022-12-03T21:03:46.613Z,17.77
2022-12-03T21:06:18.345Z,17.08
2022-12-03T21:08:49.560Z,21.05
2022-12-03T21:11:24.766Z,21.65
2022-12-03T21:13:56.866Z,19.13
2022-12-03T21:16:59.226Z,18.45
2022-12-03T21:19:22.178Z,19.92
2022-12-03T21:21:52.949Z,20.23
2022-12-03T21:24:23.785Z,19.02
2022-12-03T21:26:57.352Z,17.25
2022-12-03T21:29:28.354Z,19.80
2022-12-03T21:31:58.966Z,13.75
2022-12-03T21:34:35.862Z,15.43
2022-12-03T21:37:07.738Z,13.98
2022-12-03T21:39:38.889Z,14.07
2022-12-03T21:42:19.324Z,14.75
2022-12-03T21:45:03.088Z,14.70
2022-12-03T21:47:37.170Z,18.02
2022-12-03T21:50:11.309Z,14.23
2022-12-03T21:52:41.851Z,15.85
2022-12-03T21:55:13.073Z,13.20
2022-12-03T21:57:46.290Z,12.68
2022-12-03T22:00:18.188Z,12.82
2022-12-03T22:02:48.959Z,12.48
2022-12-03T22:05:20.311Z,16.20
2022-12-03T22:07:51.250Z,15.05
2022-12-03T22:10:22.130Z,11.82
2022-12-03T22:12:55.401Z,13.90
2022-12-03T22:15:26.035Z,15.25
2022-12-03T22:17:56.717Z,12.98
2022-12-03T22:20:27.316Z,10.05
2022-12-03T22:22:57.945Z,13.27
2022-12-03T22:25:28.611Z,17.58
2022-12-03T22:28:01.858Z,22.70
2022-12-03T22:30:32.554Z,37.70
2022-12-03T22:33:03.165Z,14.75
2022-12-03T22:35:33.809Z,15.50
2022-12-03T22:38:04.683Z,16.17
2022-12-03T22:40:35.337Z,14.70
2022-12-03T22:43:08.802Z,13.52
2022-12-03T22:45:39.496Z,13.73
2022-12-03T22:48:10.329Z,13.15
2022-12-03T22:50:45.936Z,13.48
2022-12-03T22:53:17.445Z,15.00
2022-12-03T22:55:48.152Z,18.30
2022-12-03T22:58:21.366Z,15.02
2022-12-03T23:00:51.926Z,14.40
2022-12-03T23:03:23.007Z,27.58
2022-12-03T23:05:53.799Z,31.10
2022-12-03T23:08:25.095Z,15.18
2022-12-03T23:10:56.409Z,15.05
2022-12-03T23:13:29.661Z,12.48
2022-12-03T23:16:00.425Z,16.83
2022-12-03T23:18:31.305Z,14.68
2022-12-03T23:21:02.404Z,14.18
2022-12-03T23:23:33.070Z,18.27
2022-12-03T23:26:04.788Z,23.27
2022-12-03T23:28:41.233Z,35.67
2022-12-03T23:31:19.891Z,19.55
2022-12-03T23:33:50.939Z,18.98
2022-12-03T23:36:23.311Z,28.63
2022-12-03T23:38:54.207Z,23.40
2022-12-03T23:41:26.903Z,28.70
2022-12-03T23:44:00.853Z,28.65
2022-12-03T23:46:32.083Z,26.48
2022-12-03T23:49:03.145Z,28.83
2022-12-03T23:51:33.916Z,25.27
2022-12-03T23:54:04.877Z,22.65
2022-12-03T23:56:35.602Z,23.48
2022-12-03T23:59:09.035Z,21.90
